createdAt,value
2022-08-18T00:00:02.407Z,40.61
2022-08-18T00:05:06.372Z,40.25
2022-08-18T00:10:15.578Z,40.21
2022-08-18T00:15:21.727Z,40.21
2022-08-18T00:20:25.713Z,40.57
2022-08-18T00:25:27.758Z,40.31
2022-08-18T00:30:29.656Z,40.31
2022-08-18T00:35:38.707Z,40.28
2022-08-18T00:40:44.514Z,40.68
2022-08-18T00:45:47.304Z,40.69
2022-08-18T00:51:02.510Z,40.26
2022-08-18T00:56:09.016Z,40.65
2022-08-18T01:01:16.144Z,40.67
2022-08-18T01:06:32.577Z,40.72
2022-08-18T01:11:37.646Z,40.25
2022-08-18T01:16:58.155Z,40.56
2022-08-18T01:22:07.901Z,40.57
2022-08-18T01:27:11.046Z,40.41
2022-08-18T01:32:20.179Z,40.73
2022-08-18T01:37:24.603Z,40.54
2022-08-18T01:42:26.597Z,40.62
2022-08-18T01:47:29.002Z,41.00
2022-08-18T01:52:35.623Z,41.03
2022-08-18T01:57:45.484Z,40.94
2022-08-18T02:03:01.694Z,40.80
2022-08-18T02:08:05.636Z,40.78
2022-08-18T02:13:09.405Z,40.57
2022-08-18T02:18:32.551Z,40.63
2022-08-18T02:23:52.826Z,40.53
2022-08-18T02:28:55.989Z,40.33
2022-08-18T02:33:58.234Z,40.71
2022-08-18T02:39:00.354Z,40.51
2022-08-18T02:44:03.109Z,40.43
2022-08-18T02:49:07.771Z,40.39
2022-08-18T02:54:11.652Z,40.63
2022-08-18T02:59:16.538Z,40.37
2022-08-18T03:04:30.368Z,40.25
2022-08-18T03:09:34.769Z,40.19
2022-08-18T03:14:38.468Z,40.36
2022-08-18T03:19:40.390Z,40.37
2022-08-18T03:24:45.549Z,40.18
2022-08-18T03:29:47.330Z,40.16
2022-08-18T03:34:49.313Z,40.15
2022-08-18T03:39:53.187Z,39.99
2022-08-18T03:44:55.522Z,40.08
2022-08-18T03:49:57.364Z,40.08
2022-08-18T03:55:00.464Z,39.82
2022-08-18T04:00:05.465Z,40.18
2022-08-18T04:05:07.861Z,40.21
2022-08-18T04:10:14.060Z,39.96
2022-08-18T04:15:21.450Z,40.09
2022-08-18T04:20:24.684Z,40.30
2022-08-18T04:25:32.841Z,40.12
2022-08-18T04:30:36.355Z,39.96
2022-08-18T04:35:38.463Z,40.04
2022-08-18T04:40:41.909Z,40.23
2022-08-18T04:45:46.398Z,40.26
2022-08-18T04:50:48.502Z,40.35
2022-08-18T04:55:55.090Z,40.29
2022-08-18T05:01:00.162Z,40.37
2022-08-18T05:06:05.485Z,40.56
2022-08-18T05:11:08.849Z,40.33
2022-08-18T05:16:16.816Z,40.37
2022-08-18T05:21:24.316Z,40.34
2022-08-18T05:26:27.969Z,40.34
2022-08-18T05:31:30.569Z,40.50
2022-08-18T05:36:47.670Z,40.48
2022-08-18T05:41:59.197Z,40.54
2022-08-18T05:47:13.118Z,40.53
2022-08-18T05:52:29.129Z,40.65
2022-08-18T05:57:38.362Z,40.65
2022-08-18T06:02:51.437Z,40.95
2022-08-18T06:08:01.253Z,40.69
2022-08-18T06:13:03.723Z,40.95
2022-08-18T06:18:23.735Z,40.88
2022-08-18T06:23:31.361Z,41.02
2022-08-18T06:29:03.811Z,41.23
2022-08-18T06:34:25.078Z,41.85
2022-08-18T06:39:35.196Z,42.38
2022-08-18T06:44:43.514Z,42.44
2022-08-18T06:50:20.921Z,42.62
2022-08-18T06:55:39.773Z,42.98
2022-08-18T07:00:50.551Z,43.37
2022-08-18T07:06:11.875Z,43.55
2022-08-18T07:11:27.963Z,43.87
2022-08-18T07:16:57.285Z,44.30
2022-08-18T07:22:04.699Z,43.87
2022-08-18T07:27:17.706Z,43.82
2022-08-18T07:32:22.171Z,43.79
2022-08-18T07:37:33.477Z,43.65
2022-08-18T07:43:00.543Z,43.87
2022-08-18T07:48:37.160Z,43.46
2022-08-18T07:53:54.778Z,43.59
2022-08-18T07:59:30.562Z,43.73
2022-08-18T08:04:53.680Z,43.23
2022-08-18T08:10:23.452Z,43.07
2022-08-18T08:15:37.043Z,42.44
2022-08-18T08:20:54.113Z,42.44
2022-08-18T08:26:11.649Z,42.43
2022-08-18T08:31:48.403Z,42.64
2022-08-18T08:36:59.023Z,42.33
2022-08-18T08:42:33.097Z,42.54
2022-08-18T08:47:46.654Z,42.14
2022-08-18T08:52:59.035Z,42.37
2022-08-18T08:58:19.441Z,41.64
2022-08-18T09:03:30.226Z,41.88
2022-08-18T09:08:40.665Z,41.26
2022-08-18T09:13:56.049Z,41.43
2022-08-18T09:19:22.195Z,41.85
2022-08-18T09:24:39.322Z,42.38
2022-08-18T09:29:55.226Z,41.73
2022-08-18T09:35:09.159Z,42.13
2022-08-18T09:40:59.381Z,42.11
2022-08-18T09:45:59.828Z,42.23
2022-08-18T09:51:32.137Z,42.54
2022-08-18T09:56:54.220Z,42.59
2022-08-18T10:01:57.435Z,42.32
2022-08-18T10:13:01.768Z,42.35
2022-08-18T10:18:24.312Z,41.51
2022-08-18T10:23:49.523Z,41.13
2022-08-18T10:29:00.142Z,40.87
2022-08-18T10:34:23.351Z,40.66
2022-08-18T10:39:39.564Z,40.31
2022-08-18T10:44:46.469Z,40.21
2022-08-18T10:49:50.720Z,40.36
2022-08-18T10:54:59.226Z,40.30
2022-08-18T11:00:17.713Z,40.24
2022-08-18T11:05:24.788Z,41.06
2022-08-18T11:10:57.863Z,40.85
2022-08-18T11:16:18.520Z,41.19
2022-08-18T11:21:42.565Z,41.46
2022-08-18T11:27:09.810Z,41.18
2022-08-18T11:32:29.376Z,40.88
2022-08-18T11:37:49.231Z,41.30
2022-08-18T11:43:02.858Z,41.47
2022-08-18T11:48:36.062Z,41.43
2022-08-18T11:59:25.689Z,41.84
2022-08-18T12:04:52.787Z,42.06
2022-08-18T12:10:19.265Z,42.07
2022-08-18T12:15:36.586Z,41.31
2022-08-18T12:20:51.359Z,42.20
2022-08-18T12:25:53.510Z,41.21
2022-08-18T12:30:57.117Z,40.82
2022-08-18T12:35:59.194Z,40.16
2022-08-18T12:41:01.820Z,40.38
2022-08-18T12:46:05.406Z,40.16
2022-08-18T12:51:10.112Z,39.70
2022-08-18T12:56:40.069Z,40.31
2022-08-18T13:01:42.432Z,39.69
2022-08-18T13:07:01.585Z,39.34
2022-08-18T13:12:10.031Z,39.42
2022-08-18T13:17:33.451Z,39.80
2022-08-18T13:22:37.462Z,39.44
2022-08-18T13:27:43.590Z,39.44
2022-08-18T13:32:58.793Z,39.55
2022-08-18T13:38:04.163Z,39.29
2022-08-18T13:43:18.149Z,39.71
2022-08-18T13:48:24.261Z,38.94
2022-08-18T13:53:27.582Z,39.64
2022-08-18T13:58:30.077Z,39.09
2022-08-18T14:03:42.716Z,40.39
2022-08-18T14:08:49.730Z,39.42
2022-08-18T14:13:51.857Z,38.83
2022-08-18T14:19:12.655Z,38.77
2022-08-18T14:24:36.809Z,39.23
2022-08-18T14:29:45.496Z,38.64
2022-08-18T14:34:51.128Z,38.28
2022-08-18T14:39:54.026Z,38.45
2022-08-18T14:45:17.146Z,38.37
2022-08-18T14:50:25.744Z,38.25
2022-08-18T14:55:28.127Z,39.46
2022-08-18T15:00:31.755Z,39.01
2022-08-18T15:05:34.420Z,38.98
2022-08-18T15:10:36.428Z,38.69
2022-08-18T15:15:50.737Z,38.26
2022-08-18T15:21:19.466Z,38.30
2022-08-18T15:26:34.679Z,38.41
2022-08-18T15:31:57.714Z,38.90
2022-08-18T15:37:09.770Z,37.88
2022-08-18T15:42:13.669Z,37.36
2022-08-18T15:47:20.803Z,38.23
2022-08-18T15:52:26.033Z,37.80
2022-08-18T15:57:38.446Z,37.85
2022-08-18T16:02:44.781Z,37.30
2022-08-18T16:07:51.569Z,37.12
2022-08-18T16:12:53.611Z,36.49
2022-08-18T16:17:56.195Z,36.98
2022-08-18T16:22:58.201Z,36.65
2022-08-18T16:28:00.631Z,37.70
2022-08-18T16:33:04.786Z,36.93
2022-08-18T16:38:09.107Z,37.35
2022-08-18T16:43:13.010Z,37.15
2022-08-18T16:48:16.954Z,37.58
2022-08-18T16:53:19.093Z,36.98
2022-08-18T16:58:39.716Z,37.42
2022-08-18T17:04:00.370Z,37.68
2022-08-18T17:09:09.769Z,37.39
2022-08-18T17:14:12.538Z,37.33
2022-08-18T17:19:14.718Z,36.81
2022-08-18T17:24:18.612Z,37.00
2022-08-18T17:30:02.766Z,37.88
2022-08-18T17:35:11.004Z,37.43
2022-08-18T17:40:18.667Z,37.55
2022-08-18T17:45:22.208Z,37.78
2022-08-18T17:50:47.509Z,37.74
2022-08-18T17:56:12.665Z,37.84
2022-08-18T18:01:15.550Z,38.78
2022-08-18T18:06:18.509Z,38.75
2022-08-18T18:11:37.715Z,38.86
2022-08-18T18:16:39.507Z,39.75
2022-08-18T18:21:58.960Z,39.21
2022-08-18T18:27:24.334Z,39.75
2022-08-18T18:32:31.109Z,39.08
2022-08-18T18:37:33.289Z,39.55
2022-08-18T18:42:36.831Z,39.97
2022-08-18T18:48:04.931Z,39.23
2022-08-18T18:53:27.409Z,39.31
2022-08-18T18:58:46.162Z,39.30
2022-08-18T19:04:03.509Z,39.53
2022-08-18T19:09:24.710Z,40.10
2022-08-18T19:14:34.733Z,40.17
2022-08-18T19:19:44.633Z,40.12
2022-08-18T19:25:05.094Z,40.21
2022-08-18T19:30:12.669Z,40.24
2022-08-18T19:35:19.849Z,40.32
2022-08-18T19:40:30.583Z,40.73
2022-08-18T19:45:35.843Z,40.60
2022-08-18T19:50:43.641Z,40.63
2022-08-18T19:56:09.225Z,40.78
2022-08-18T20:01:48.411Z,40.84
2022-08-18T20:07:17.101Z,41.10
2022-08-18T20:12:27.003Z,40.68
2022-08-18T20:17:29.757Z,40.98
2022-08-18T20:22:44.003Z,41.06
2022-08-18T20:28:12.973Z,40.92
2022-08-18T20:33:24.238Z,40.88
2022-08-18T20:38:35.908Z,41.13
2022-08-18T20:43:41.200Z,41.02
2022-08-18T20:49:06.036Z,41.09
2022-08-18T20:54:31.427Z,41.25
2022-08-18T20:59:39.231Z,41.04
2022-08-18T21:04:52.139Z,41.30
2022-08-18T21:10:13.440Z,41.15
2022-08-18T21:15:15.603Z,41.19
2022-08-18T21:20:17.383Z,41.38
2022-08-18T21:25:19.839Z,41.50
2022-08-18T21:30:24.717Z,41.45
2022-08-18T21:35:34.031Z,40.07
2022-08-18T21:40:46.721Z,39.89
2022-08-18T21:45:56.261Z,39.99
2022-08-18T21:51:01.301Z,40.18
2022-08-18T21:56:03.352Z,39.91
2022-08-18T22:01:10.851Z,39.92
2022-08-18T22:06:23.318Z,39.95
2022-08-18T22:12:01.267Z,39.99
2022-08-18T22:17:24.929Z,40.38
2022-08-18T22:22:49.432Z,40.11
2022-08-18T22:27:51.484Z,40.01
2022-08-18T22:32:53.939Z,40.24
2022-08-18T22:37:56.026Z,40.17
2022-08-18T22:42:59.031Z,40.21
2022-08-18T22:48:01.487Z,40.06
2022-08-18T22:53:03.718Z,40.56
2022-08-18T22:58:05.651Z,40.38
2022-08-18T23:03:10.684Z,40.10
2022-08-18T23:08:12.834Z,40.39
2022-08-18T23:13:17.075Z,40.17
2022-08-18T23:18:21.198Z,40.41
2022-08-18T23:23:26.640Z,40.46
2022-08-18T23:28:28.686Z,40.31
2022-08-18T23:33:30.950Z,40.66
2022-08-18T23:38:32.784Z,40.43
2022-08-18T23:43:36.194Z,40.60
2022-08-18T23:48:38.257Z,40.36
2022-08-18T23:53:40.181Z,40.33
2022-08-18T23:58:43.459Z,40.49
